Underkhaan, Mongolia
Current Conditions -  °F | °C
As of 9:30 AM on Saturday 20 Dec 2014 (Local Time) from ZMUB Reporting Station
Clear Clear  
Wind Chill: -18°   Ceiling: Unl
Heat Index: -18°   Visibility: 6mi
Dew Point: -24°   Wind: 0mph
Humidity: 76%   Direction: NA
Pressure: 30.36"   Gusts: NA
Location:  47.32°N, 110.63°E
Report Text: ZMUB 200130Z 00000MPS CAVOK M28/M31 Q1028 NOSIG RMK QFE662.5 72
Loading
Personal Weather Stations






























Interactive Weather Map New forecast layout! Learn more

10-Day Weather Forecast

Advertisements
Track Severe Weather on mobile